Time;durP1;ratioP1;P1;durP2;ratioP2;P2;SDS_P1;SDS_P2;PMS_P1;PMS_P2;Temp;Humidity;BMP_temperature;BMP_pressure;BME280_temperature;BME280_humidity;BME280_pressure;Samples;Min_cycle;Max_cycle;Signal;HPM_P1;HPM_P2
2023/09/14 00:00:20;;;;;;;;;;;;;;;15.53;72.18;101206.44;4946224;28;2160;-75
2023/09/14 00:03:12;;;;;;;;;;;;;;;15.50;72.13;101198.75;4951144;28;2177;-75
2023/09/14 00:06:04;;;;;;;;;;;;;;;15.50;72.17;101194.19;4946418;28;2440;-74
2023/09/14 00:08:55;;;;;;;;;;;;;;;15.49;72.16;101197.94;4962563;28;2148;-75
2023/09/14 00:11:47;;;;;;;;;;;;;;;15.47;72.08;101199.22;4970318;28;1684;-77
2023/09/14 00:14:39;;;;;;;;;;;;;;;15.47;72.01;101205.50;4965861;28;2064;-75
2023/09/14 00:17:31;;;;;;;;;;;;;;;15.45;72.09;101208.44;4957733;28;2490;-75
2023/09/14 00:20:22;;;;;;;;;;;;;;;15.43;72.25;101209.75;4947163;28;2168;-74
2023/09/14 00:23:14;;;;;;;;;;;;;;;15.42;72.02;101206.19;4944764;28;2566;-75
2023/09/14 00:26:06;;;;;;;;;;;;;;;15.40;72.08;101210.22;4949091;28;2458;-77
2023/09/14 00:28:57;;;;;;;;;;;;;;;15.40;72.02;101211.03;4951135;28;2155;-74
2023/09/14 00:31:49;;;;;;;;;;;;;;;15.40;72.01;101218.34;4944546;28;2115;-75
2023/09/14 00:34:42;;;;;;;;;;;;;;;15.37;71.97;101214.22;4953219;28;2144;-75
2023/09/14 00:37:34;;;;;;;;;;;;;;;15.38;71.92;101215.88;4945765;28;2293;-76
2023/09/14 00:40:26;;;;;;;;;;;;;;;15.36;71.89;101217.19;4949342;28;2259;-75
2023/09/14 00:43:17;;;;;;;;;;;;;;;15.35;71.92;101218.22;4950663;28;2419;-76
2023/09/14 00:46:08;;;;;;;;;;;;;;;15.33;71.88;101215.75;4946313;28;2425;-76
2023/09/14 00:49:01;;;;;;;;;;;;;;;15.33;71.87;101225.78;4949194;28;2487;-75
2023/09/14 00:51:53;;;;;;;;;;;;;;;15.30;71.75;101218.94;4947360;28;4791;-76
2023/09/14 00:54:44;;;;;;;;;;;;;;;15.30;71.82;101221.66;4955500;28;2211;-76
2023/09/14 00:57:37;;;;;;;;;;;;;;;15.29;71.80;101222.69;4949488;28;3729;-77
2023/09/14 01:00:28;;;;;;;;;;;;;;;15.28;71.76;101222.94;4945372;28;2312;-76
2023/09/14 01:03:20;;;;;;;;;;;;;;;15.27;71.73;101224.03;4946000;28;2627;-75
2023/09/14 01:06:11;;;;;;;;;;;;;;;15.26;71.74;101238.63;4950669;28;2225;-76
2023/09/14 01:09:05;;;;;;;;;;;;;;;15.24;71.80;101240.78;4960392;28;3597;-74
2023/09/14 01:11:56;;;;;;;;;;;;;;;15.22;71.68;101247.25;4960794;28;1908;-75
2023/09/14 01:14:49;;;;;;;;;;;;;;;15.22;71.73;101252.66;4961626;28;2042;-75
2023/09/14 01:17:41;;;;;;;;;;;;;;;15.21;71.63;101250.22;4954503;28;2219;-75
2023/09/14 01:20:33;;;;;;;;;;;;;;;15.19;71.58;101247.72;4951947;28;2176;-75
2023/09/14 01:23:25;;;;;;;;;;;;;;;15.19;71.65;101252.31;4948190;28;2213;-75
2023/09/14 01:26:17;;;;;;;;;;;;;;;15.17;71.54;101252.53;4957615;28;2156;-76
2023/09/14 01:29:09;;;;;;;;;;;;;;;15.16;71.58;101250.88;4947727;28;2235;-76
2023/09/14 01:32:00;;;;;;;;;;;;;;;15.16;71.50;101253.59;4945931;28;2200;-76
2023/09/14 01:34:53;;;;;;;;;;;;;;;15.15;71.59;101256.56;4950611;28;2575;-76
2023/09/14 01:37:45;;;;;;;;;;;;;;;15.14;71.57;101263.03;4949721;28;2486;-75
2023/09/14 01:40:37;;;;;;;;;;;;;;;15.12;71.41;101267.88;4946670;28;2463;-75
2023/09/14 01:43:29;;;;;;;;;;;;;;;15.12;71.46;101265.16;4946145;28;2165;-74
2023/09/14 01:46:21;;;;;;;;;;;;;;;15.10;71.40;101256.44;4948612;28;2220;-77
2023/09/14 01:49:13;;;;;;;;;;;;;;;15.08;71.33;101256.66;4950124;28;2133;-74
2023/09/14 01:52:05;;;;;;;;;;;;;;;15.08;71.48;101262.06;4950686;28;2452;-75
2023/09/14 01:54:57;;;;;;;;;;;;;;;15.06;71.45;101261.50;4952095;28;2193;-74
2023/09/14 01:57:48;;;;;;;;;;;;;;;15.05;71.39;101265.25;4948225;28;2472;-75
2023/09/14 02:00:40;;;;;;;;;;;;;;;15.04;71.36;101260.06;4948138;28;2507;-75
2023/09/14 02:03:32;;;;;;;;;;;;;;;15.04;71.37;101262.78;4948245;28;2186;-75
2023/09/14 02:06:24;;;;;;;;;;;;;;;15.01;71.29;101263.25;4957373;28;2277;-74
2023/09/14 02:09:16;;;;;;;;;;;;;;;15.01;71.35;101261.34;4948812;28;2137;-75
2023/09/14 02:12:08;;;;;;;;;;;;;;;15.00;71.36;101267.84;4950262;28;2154;-73
2023/09/14 02:15:00;;;;;;;;;;;;;;;14.97;71.27;101262.84;4969114;28;2244;-74
2023/09/14 02:17:52;;;;;;;;;;;;;;;14.98;71.21;101259.13;4956103;28;2272;-76
2023/09/14 02:20:43;;;;;;;;;;;;;;;14.96;71.26;101264.75;4958612;28;2473;-74
2023/09/14 02:23:36;;;;;;;;;;;;;;;14.95;71.20;101262.28;4948509;28;2452;-75
2023/09/14 02:26:28;;;;;;;;;;;;;;;14.93;71.24;101258.97;4951372;28;2186;-75
2023/09/14 02:29:20;;;;;;;;;;;;;;;14.93;71.12;101257.06;4951783;28;2129;-75
2023/09/14 02:32:12;;;;;;;;;;;;;;;14.91;71.20;101250.22;4954638;28;2171;-75
2023/09/14 02:35:04;;;;;;;;;;;;;;;14.90;71.14;101246.69;4947884;28;2569;-76
2023/09/14 02:37:55;;;;;;;;;;;;;;;14.90;71.24;101254.00;4956472;28;2482;-74
2023/09/14 02:40:48;;;;;;;;;;;;;;;14.89;71.14;101246.94;4951222;28;2491;-75
2023/09/14 02:43:40;;;;;;;;;;;;;;;14.87;70.97;101240.91;4950647;28;2293;-75
2023/09/14 02:46:32;;;;;;;;;;;;;;;14.85;71.06;101243.03;4951707;28;2540;-76
2023/09/14 02:49:24;;;;;;;;;;;;;;;14.85;71.05;101246.56;4948562;28;2232;-76
2023/09/14 02:52:16;;;;;;;;;;;;;;;14.83;70.90;101254.13;4956548;28;2428;-77
2023/09/14 02:55:08;;;;;;;;;;;;;;;14.83;70.94;101259.53;4949751;28;2172;-75
2023/09/14 02:58:00;;;;;;;;;;;;;;;14.81;70.89;101250.78;4952578;28;2436;-75
2023/09/14 03:00:52;;;;;;;;;;;;;;;14.81;70.93;101260.81;4945363;28;2155;-76
2023/09/14 03:03:44;;;;;;;;;;;;;;;14.78;71.06;101256.69;4947115;28;2432;-75
2023/09/14 03:06:36;;;;;;;;;;;;;;;14.77;70.80;101255.88;4947338;28;2436;-75
2023/09/14 03:09:28;;;;;;;;;;;;;;;14.75;70.89;101252.53;4948715;28;2476;-76
2023/09/14 03:12:20;;;;;;;;;;;;;;;14.75;70.75;101257.16;4951334;28;2205;-77
2023/09/14 03:15:12;;;;;;;;;;;;;;;14.73;70.93;101248.41;4953713;28;2196;-75
2023/09/14 03:18:04;;;;;;;;;;;;;;;14.34;71.10;101201.78;4962115;28;2186;-75
2023/09/14 03:20:56;;;;;;;;;;;;;;;14.72;70.78;101265.75;4946145;28;4672;-77
2023/09/14 03:23:48;;;;;;;;;;;;;;;14.70;70.80;101268.66;4960997;28;3841;-75
2023/09/14 03:26:40;;;;;;;;;;;;;;;14.70;70.81;101257.81;4952264;28;3847;-76
2023/09/14 03:29:32;;;;;;;;;;;;;;;14.69;70.75;101274.34;4957149;28;2106;-75
2023/09/14 03:32:24;;;;;;;;;;;;;;;14.67;70.80;101271.00;4949199;28;2117;-75
2023/09/14 03:35:16;;;;;;;;;;;;;;;14.65;70.87;101268.56;4944797;28;2141;-75
2023/09/14 03:38:08;;;;;;;;;;;;;;;14.64;70.75;101275.00;4954745;28;2121;-76
2023/09/14 03:41:00;;;;;;;;;;;;;;;14.62;70.67;101277.16;4962099;28;4188;-75
2023/09/14 03:43:52;;;;;;;;;;;;;;;14.63;70.75;101286.09;4967244;28;2044;-75
2023/09/14 03:46:44;;;;;;;;;;;;;;;14.61;70.53;101282.78;4965627;28;2155;-75
2023/09/14 03:49:36;;;;;;;;;;;;;;;14.60;70.74;101290.09;4959488;28;2118;-75
2023/09/14 03:52:28;;;;;;;;;;;;;;;14.59;70.77;101293.88;4970292;28;2361;-76
2023/09/14 03:55:20;;;;;;;;;;;;;;;14.58;70.69;101289.47;4963108;28;1314;-74
2023/09/14 03:58:12;;;;;;;;;;;;;;;14.56;70.67;101288.06;4969516;28;1454;-76
2023/09/14 04:01:04;;;;;;;;;;;;;;;14.55;70.71;101284.53;4967012;28;2066;-74
2023/09/14 04:03:56;;;;;;;;;;;;;;;14.53;70.57;101287.47;4960939;28;1907;-75
2023/09/14 04:06:48;;;;;;;;;;;;;;;14.53;70.68;101286.66;4971814;28;1911;-74
2023/09/14 04:09:41;;;;;;;;;;;;;;;14.51;70.75;101289.56;4963381;28;1371;-76
2023/09/14 04:12:32;;;;;;;;;;;;;;;14.50;70.70;101287.03;4962944;28;2124;-74
2023/09/14 04:15:25;;;;;;;;;;;;;;;14.49;70.55;101283.50;4956839;28;2288;-75
2023/09/14 04:18:18;;;;;;;;;;;;;;;14.46;70.68;101278.53;4951047;28;2424;-74
2023/09/14 04:21:10;;;;;;;;;;;;;;;14.46;70.42;101275.84;4946896;28;2539;-75
2023/09/14 04:24:02;;;;;;;;;;;;;;;14.45;70.42;101271.47;4948569;28;2148;-74
2023/09/14 04:26:54;;;;;;;;;;;;;;;14.45;70.45;101278.78;4954851;28;2458;-75
2023/09/14 04:29:46;;;;;;;;;;;;;;;14.42;70.39;101266.53;4951571;28;2207;-75
2023/09/14 04:32:38;;;;;;;;;;;;;;;14.41;70.53;101269.44;4964818;28;1728;-74
2023/09/14 04:35:30;;;;;;;;;;;;;;;14.40;70.44;101268.63;4967156;28;2029;-76
2023/09/14 04:38:22;;;;;;;;;;;;;;;14.40;70.53;101270.50;4971475;28;1623;-74
2023/09/14 04:41:14;;;;;;;;;;;;;;;14.39;70.34;101277.81;4963177;28;1478;-74
2023/09/14 04:44:05;;;;;;;;;;;;;;;14.38;70.35;101270.72;4962170;28;2088;-73
2023/09/14 04:46:59;;;;;;;;;;;;;;;14.36;70.37;101259.31;4961452;28;2082;-76
2023/09/14 04:49:51;;;;;;;;;;;;;;;14.35;70.35;101249.50;4962017;28;2061;-75
2023/09/14 04:52:43;;;;;;;;;;;;;;;14.34;70.55;101252.44;4962874;28;2003;-75
2023/09/14 04:55:35;;;;;;;;;;;;;;;14.34;70.46;101255.16;4962443;28;2034;-75
2023/09/14 04:58:27;;;;;;;;;;;;;;;14.32;70.33;101255.38;4969941;28;1390;-75
2023/09/14 05:01:19;;;;;;;;;;;;;;;14.29;70.48;101262.09;4963409;28;2064;-75
2023/09/14 05:04:11;;;;;;;;;;;;;;;14.30;70.30;101260.22;4966880;28;2089;-76
2023/09/14 05:07:03;;;;;;;;;;;;;;;14.29;70.32;101255.84;5026933;22;3655;-77
2023/09/14 05:09:55;;;;;;;;;;;;;;;14.27;70.36;101269.63;5012164;28;1692;-74
2023/09/14 05:12:47;;;;;;;;;;;;;;;14.26;70.25;101273.38;5017506;28;2301;-75
2023/09/14 05:15:39;;;;;;;;;;;;;;;14.26;70.30;101272.53;5004572;28;2185;-76
2023/09/14 05:18:31;;;;;;;;;;;;;;;14.25;70.26;101260.06;4992478;28;2737;-76
2023/09/14 05:21:23;;;;;;;;;;;;;;;14.24;70.17;101270.06;5014695;28;2138;-75
2023/09/14 05:24:15;;;;;;;;;;;;;;;14.22;70.16;101276.78;5021072;28;1924;-75
2023/09/14 05:27:07;;;;;;;;;;;;;;;14.21;70.11;101269.72;4998384;28;2457;-76
2023/09/14 05:29:59;;;;;;;;;;;;;;;14.18;70.21;101273.69;4994790;28;2627;-77
2023/09/14 05:32:51;;;;;;;;;;;;;;;14.18;70.30;101270.97;4994794;28;2769;-76
2023/09/14 05:35:43;;;;;;;;;;;;;;;14.18;70.34;101275.59;5002783;28;2141;-75
2023/09/14 05:38:34;;;;;;;;;;;;;;;14.17;70.08;101284.75;4997205;28;2114;-76
2023/09/14 05:41:26;;;;;;;;;;;;;;;14.17;70.21;101292.88;5003347;28;2089;-76
2023/09/14 05:44:18;;;;;;;;;;;;;;;14.15;70.18;101284.13;5020788;28;1329;-75
2023/09/14 05:47:10;;;;;;;;;;;;;;;14.15;70.20;101294.97;5021199;28;1907;-75
2023/09/14 05:50:03;;;;;;;;;;;;;;;14.12;70.05;101296.28;5014224;28;2023;-74
2023/09/14 05:52:56;;;;;;;;;;;;;;;14.12;70.04;101309.81;5007520;28;4715;-76
2023/09/14 05:55:47;;;;;;;;;;;;;;;14.09;69.98;101321.91;5025207;28;1000;-75
2023/09/14 05:58:39;;;;;;;;;;;;;;;14.09;70.09;101329.22;5005906;28;3559;-76
2023/09/14 06:01:31;;;;;;;;;;;;;;;14.08;70.02;101338.38;5015977;28;2002;-76
2023/09/14 06:04:23;;;;;;;;;;;;;;;14.07;70.13;101331.31;5013422;28;2098;-75
2023/09/14 06:07:15;;;;;;;;;;;;;;;14.05;69.92;101328.81;5009321;28;2124;-76
2023/09/14 06:10:07;;;;;;;;;;;;;;;14.04;70.01;101327.16;5019628;28;3543;-75
2023/09/14 06:12:59;;;;;;;;;;;;;;;14.04;70.13;101321.75;5020177;28;899;-74
2023/09/14 06:15:51;;;;;;;;;;;;;;;14.04;69.94;101319.03;5013699;28;1598;-75
2023/09/14 06:18:43;;;;;;;;;;;;;;;14.03;70.18;101314.69;5024293;28;949;-75
2023/09/14 06:21:34;;;;;;;;;;;;;;;14.01;70.00;101315.97;5014397;28;2244;-77
2023/09/14 06:24:26;;;;;;;;;;;;;;;14.00;70.10;101311.59;5021343;28;993;-75
2023/09/14 06:27:18;;;;;;;;;;;;;;;13.99;70.09;101309.94;5020231;28;1894;-75
2023/09/14 06:30:10;;;;;;;;;;;;;;;13.98;70.07;101306.41;5018061;28;1704;-76
2023/09/14 06:33:02;;;;;;;;;;;;;;;13.98;70.07;101317.25;5021427;28;1391;-76
2023/09/14 06:35:54;;;;;;;;;;;;;;;13.98;70.09;101311.81;5025529;28;2352;-76
2023/09/14 06:38:46;;;;;;;;;;;;;;;13.97;70.09;101314.75;5019948;28;1667;-76
2023/09/14 06:41:37;;;;;;;;;;;;;;;13.95;70.17;101322.28;5025269;28;970;-76
2023/09/14 06:44:29;;;;;;;;;;;;;;;13.95;69.96;101320.41;5014208;28;1933;-74
2023/09/14 06:47:21;;;;;;;;;;;;;;;13.95;69.77;101314.97;5015723;28;1907;-75
2023/09/14 06:50:13;;;;;;;;;;;;;;;13.94;70.00;101304.34;5022405;28;1662;-75
2023/09/14 06:53:04;;;;;;;;;;;;;;;13.93;69.82;101308.94;5025603;28;1777;-74
2023/09/14 06:55:56;;;;;;;;;;;;;;;13.91;69.97;101311.03;5015849;28;2192;-75
2023/09/14 06:58:48;;;;;;;;;;;;;;;13.91;69.82;101318.34;5014310;28;1720;-76
2023/09/14 07:01:41;;;;;;;;;;;;;;;13.91;69.85;101310.22;5023027;28;946;-75
2023/09/14 07:04:33;;;;;;;;;;;;;;;13.91;69.77;101321.88;5023870;28;2023;-75
2023/09/14 07:07:24;;;;;;;;;;;;;;;13.91;69.93;101312.94;5019846;28;1875;-73
2023/09/14 07:10:16;;;;;;;;;;;;;;;13.90;69.82;101316.69;5014824;28;1002;-75
2023/09/14 07:13:08;;;;;;;;;;;;;;;13.90;69.84;101319.41;5022669;28;1853;-75
2023/09/14 07:16:00;;;;;;;;;;;;;;;13.88;69.94;101314.19;5018265;28;1696;-76
2023/09/14 07:18:52;;;;;;;;;;;;;;;13.88;69.73;101311.50;5022777;28;1909;-76
2023/09/14 07:21:44;;;;;;;;;;;;;;;13.85;69.78;101301.97;5019669;28;1754;-75
2023/09/14 07:24:36;;;;;;;;;;;;;;;13.86;69.80;101302.78;5008829;28;2514;-75
2023/09/14 07:27:28;;;;;;;;;;;;;;;13.84;69.81;101289.44;5022889;28;1890;-75
2023/09/14 07:30:20;;;;;;;;;;;;;;;13.84;69.97;101291.34;5019170;28;1524;-74
2023/09/14 07:33:12;;;;;;;;;;;;;;;13.84;69.90;101297.56;5015828;28;1487;-76
2023/09/14 07:36:04;;;;;;;;;;;;;;;13.83;69.95;101292.41;5026119;28;1456;-75
2023/09/14 07:38:56;;;;;;;;;;;;;;;13.83;69.76;101286.97;5026226;28;992;-75
2023/09/14 07:41:48;;;;;;;;;;;;;;;13.82;69.77;101285.31;5022179;28;1735;-76
2023/09/14 07:44:40;;;;;;;;;;;;;;;13.81;69.74;101294.50;5022381;28;1480;-76
2023/09/14 07:47:32;;;;;;;;;;;;;;;13.79;69.93;101302.81;5019365;28;1906;-75
2023/09/14 07:50:24;;;;;;;;;;;;;;;13.81;69.87;101302.63;5004882;28;3647;-77
2023/09/14 07:53:16;;;;;;;;;;;;;;;13.80;69.95;101322.63;5010832;28;4285;-75
2023/09/14 07:56:08;;;;;;;;;;;;;;;13.78;70.00;101313.88;5010094;28;4802;-76
2023/09/14 07:59:00;;;;;;;;;;;;;;;13.78;69.95;101309.28;5009609;28;2208;-77
2023/09/14 08:01:52;;;;;;;;;;;;;;;13.77;69.75;101307.66;5011901;28;3214;-74
2023/09/14 08:04:44;;;;;;;;;;;;;;;13.76;69.82;101289.72;5010207;28;2216;-74
2023/09/14 08:07:36;;;;;;;;;;;;;;;13.76;69.97;101283.50;5010372;28;4853;-77
2023/09/14 08:10:28;;;;;;;;;;;;;;;13.76;69.89;101286.19;5011000;28;2099;-74
2023/09/14 08:13:20;;;;;;;;;;;;;;;13.75;69.92;101281.84;5008286;28;2288;-75
2023/09/14 08:16:12;;;;;;;;;;;;;;;13.75;69.75;101277.25;5008554;28;2209;-76
2023/09/14 08:19:04;;;;;;;;;;;;;;;13.74;69.67;101285.63;5022773;28;2256;-75
2023/09/14 08:21:57;;;;;;;;;;;;;;;13.74;69.86;101277.50;5014942;28;2226;-77
2023/09/14 08:24:49;;;;;;;;;;;;;;;13.74;69.66;101277.50;5012753;28;2208;-76
2023/09/14 08:27:41;;;;;;;;;;;;;;;13.73;69.65;101282.06;5027234;28;1903;-75
2023/09/14 08:30:32;;;;;;;;;;;;;;;13.72;69.82;101280.41;5011922;28;2099;-74
2023/09/14 08:33:24;;;;;;;;;;;;;;;13.72;69.90;101279.59;5019264;28;2031;-76
2023/09/14 08:36:16;;;;;;;;;;;;;;;13.71;69.66;101273.34;5018013;28;894;-77
2023/09/14 08:39:08;;;;;;;;;;;;;;;13.71;69.69;101280.66;5026630;28;1117;-75
2023/09/14 08:42:00;;;;;;;;;;;;;;;13.70;69.73;101293.34;5024963;28;1616;-75
2023/09/14 08:44:52;;;;;;;;;;;;;;;13.71;69.89;101313.13;5002534;28;4579;-75
2023/09/14 08:47:44;;;;;;;;;;;;;;;13.69;69.99;101312.50;5020439;28;1887;-74
2023/09/14 08:50:36;;;;;;;;;;;;;;;13.69;69.83;101317.94;5016225;28;4063;-75
2023/09/14 08:53:28;;;;;;;;;;;;;;;13.68;69.70;101327.94;5015070;28;1956;-76
2023/09/14 08:56:20;;;;;;;;;;;;;;;13.68;69.91;101335.19;5017568;28;1303;-75
2023/09/14 08:59:12;;;;;;;;;;;;;;;13.68;69.92;101317.09;5022497;28;1029;-75
2023/09/14 09:02:04;;;;;;;;;;;;;;;13.67;69.92;101311.91;5010188;28;3834;-76
2023/09/14 09:04:56;;;;;;;;;;;;;;;13.67;69.76;101306.50;5024294;28;962;-74
2023/09/14 09:07:48;;;;;;;;;;;;;;;13.68;69.94;101310.84;5023102;28;1902;-73
2023/09/14 09:10:40;;;;;;;;;;;;;;;13.67;69.81;101311.91;5009428;28;2129;-74
2023/09/14 09:13:32;;;;;;;;;;;;;;;13.66;69.73;101305.66;5015388;28;2168;-75
2023/09/14 09:16:26;;;;;;;;;;;;;;;13.25;61.00;101300.75;5015094;28;1581;-72
2023/09/14 09:19:18;;;;;;;;;;;;;;;13.49;69.08;101299.97;5021489;28;1987;-75
2023/09/14 09:22:10;;;;;;;;;;;;;;;13.56;68.31;101289.94;5016961;28;1412;-75
2023/09/14 09:25:04;;;;;;;;;;;;;;;13.56;68.72;101291.78;5008577;28;2340;-75
2023/09/14 09:27:56;;;;;;;;;;;;;;;13.57;68.91;101279.94;5008398;28;2307;-73
2023/09/14 09:30:48;;;;;;;;;;;;;;;13.58;69.06;101279.69;5016879;28;1917;-73
2023/09/14 09:33:40;;;;;;;;;;;;;;;13.56;69.09;101284.53;5018186;28;926;-74
2023/09/14 09:36:32;;;;;;;;;;;;;;;13.57;69.16;101269.94;5023073;28;993;-72
2023/09/14 09:39:24;;;;;;;;;;;;;;;13.58;69.15;101273.47;5014230;28;2062;-74
2023/09/14 09:42:16;;;;;;;;;;;;;;;13.58;69.32;101274.28;5018154;28;1118;-75
2023/09/14 09:45:08;;;;;;;;;;;;;;;13.58;69.34;101271.56;5021474;28;2190;-73
2023/09/14 09:48:00;;;;;;;;;;;;;;;13.57;69.39;101269.94;5025227;28;2252;-74
2023/09/14 09:50:52;;;;;;;;;;;;;;;13.57;69.46;101261.81;5020845;28;2038;-73
2023/09/14 09:53:44;;;;;;;;;;;;;;;13.57;69.32;101264.53;5016887;28;939;-72
2023/09/14 09:56:36;;;;;;;;;;;;;;;13.58;69.37;101281.56;5015290;28;1920;-73
2023/09/14 09:59:29;;;;;;;;;;;;;;;13.58;69.31;101290.53;5015597;28;2051;-73
2023/09/14 10:02:21;;;;;;;;;;;;;;;13.60;69.53;101290.31;5019713;28;2042;-72
2023/09/14 10:05:13;;;;;;;;;;;;;;;13.59;69.57;101292.19;5017951;28;1103;-73
2023/09/14 10:08:05;;;;;;;;;;;;;;;13.58;69.67;101284.28;5021230;28;1902;-72
2023/09/14 10:10:57;;;;;;;;;;;;;;;13.58;69.64;101277.00;5022379;28;2114;-73
2023/09/14 10:13:49;;;;;;;;;;;;;;;13.57;69.55;101283.47;5020966;28;2122;-73
2023/09/14 10:16:41;;;;;;;;;;;;;;;13.58;69.47;101298.63;5025393;28;1656;-73
2023/09/14 10:19:33;;;;;;;;;;;;;;;13.59;69.50;101292.19;5021927;28;2090;-73
2023/09/14 10:22:25;;;;;;;;;;;;;;;13.58;69.70;101287.81;5026262;28;1815;-73
2023/09/14 10:25:17;;;;;;;;;;;;;;;13.58;69.69;101279.69;5022353;28;2066;-74
2023/09/14 10:28:09;;;;;;;;;;;;;;;13.57;69.63;101269.94;5028507;28;1899;-73
2023/09/14 10:31:01;;;;;;;;;;;;;;;13.57;69.80;101269.94;5030675;28;1106;-74
2023/09/14 10:33:57;;;;;;;;;;;;;;;13.57;69.76;101259.09;5018374;28;1120;-72
2023/09/14 10:36:49;;;;;;;;;;;;;;;13.58;69.72;101243.69;5031142;28;1698;-72
2023/09/14 10:39:40;;;;;;;;;;;;;;;13.58;69.60;101239.09;5019187;28;2051;-73
2023/09/14 10:42:32;;;;;;;;;;;;;;;13.59;69.76;101240.78;5024219;28;2149;-73
2023/09/14 10:45:26;;;;;;;;;;;;;;;13.60;69.63;101241.59;5013122;28;2176;-72
2023/09/14 10:48:18;;;;;;;;;;;;;;;13.60;69.73;101245.13;5010839;28;2280;-74
2023/09/14 10:51:10;;;;;;;;;;;;;;;13.59;69.58;101229.94;5020833;28;2137;-74
2023/09/14 10:54:02;;;;;;;;;;;;;;;13.60;69.59;101236.19;5013605;28;2288;-73
2023/09/14 10:56:54;;;;;;;;;;;;;;;13.62;69.57;101247.63;5027212;28;938;-74
2023/09/14 10:59:46;;;;;;;;;;;;;;;13.60;69.76;101237.00;5019792;28;2066;-72
2023/09/14 11:02:39;;;;;;;;;;;;;;;13.60;69.76;101238.91;5019900;28;2133;-72
2023/09/14 11:05:30;;;;;;;;;;;;;;;13.62;69.72;101234.09;5025483;28;1775;-72
2023/09/14 11:08:21;;;;;;;;;;;;;;;13.62;69.79;101234.91;5025502;28;2059;-74
2023/09/14 11:11:13;;;;;;;;;;;;;;;13.62;69.72;101236.81;5020522;28;1612;-74
2023/09/14 11:14:06;;;;;;;;;;;;;;;13.63;69.69;101250.09;5010812;28;4913;-73
2023/09/14 11:16:58;;;;;;;;;;;;;;;13.63;69.68;101247.38;5014604;28;3948;-74
2023/09/14 11:19:52;;;;;;;;;;;;;;;13.63;69.78;101231.16;5020141;28;3817;-73
2023/09/14 11:22:44;;;;;;;;;;;;;;;13.64;69.67;101223.84;5023928;28;2239;-73
2023/09/14 11:25:36;;;;;;;;;;;;;;;13.64;69.75;101224.66;5025673;28;1330;-74
2023/09/14 11:28:28;;;;;;;;;;;;;;;13.65;69.85;101233.66;5014944;28;2233;-74
2023/09/14 11:31:20;;;;;;;;;;;;;;;13.65;69.75;101222.81;5015846;28;2283;-72
2023/09/14 11:34:12;;;;;;;;;;;;;;;13.66;69.82;101227.16;5015629;28;2149;-72
2023/09/14 11:37:05;;;;;;;;;;;;;;;13.68;69.92;101226.94;5009930;28;2362;-72
2023/09/14 11:39:57;;;;;;;;;;;;;;;13.67;69.89;101219.88;5010570;28;2265;-73
2023/09/14 11:42:49;;;;;;;;;;;;;;;13.68;69.91;101203.41;5009932;28;2233;-73
2023/09/14 11:45:41;;;;;;;;;;;;;;;13.69;69.90;101199.66;5009053;28;2283;-74
2023/09/14 11:48:34;;;;;;;;;;;;;;;13.69;69.96;101193.41;5023113;28;1957;-73
2023/09/14 11:51:25;;;;;;;;;;;;;;;13.69;70.06;101194.25;5019868;28;1977;-72
2023/09/14 11:54:17;;;;;;;;;;;;;;;13.70;70.03;101193.19;5006451;28;2016;-72
2023/09/14 11:57:09;;;;;;;;;;;;;;;13.72;69.77;101187.56;5008352;28;1692;-74
2023/09/14 12:00:01;;;;;;;;;;;;;;;13.71;70.03;101183.19;5015346;28;2071;-74
2023/09/14 12:02:53;;;;;;;;;;;;;;;13.72;70.09;101182.97;5010478;28;2188;-72
2023/09/14 12:05:45;;;;;;;;;;;;;;;13.73;70.12;101186.50;5009471;28;2492;-73
2023/09/14 12:08:37;;;;;;;;;;;;;;;13.73;69.98;101173.78;5014172;28;1949;-71
2023/09/14 12:11:29;;;;;;;;;;;;;;;13.74;70.07;101183.56;5019800;28;2237;-74
2023/09/14 12:14:21;;;;;;;;;;;;;;;13.75;70.10;101176.28;5025140;28;1924;-72
2023/09/14 12:17:13;;;;;;;;;;;;;;;13.75;69.92;101184.41;5020684;28;2023;-72
2023/09/14 12:20:05;;;;;;;;;;;;;;;13.76;70.25;101189.56;5018830;28;1644;-73
2023/09/14 12:22:57;;;;;;;;;;;;;;;13.76;70.17;101177.91;5015442;28;1978;-73
2023/09/14 12:25:49;;;;;;;;;;;;;;;13.76;69.99;101183.34;5013291;28;2103;-73
2023/09/14 12:28:41;;;;;;;;;;;;;;;13.77;70.08;101185.81;5014118;28;2155;-73
2023/09/14 12:31:37;;;;;;;;;;;;;;;13.77;70.24;101183.13;5017817;28;2141;-74
2023/09/14 12:34:28;;;;;;;;;;;;;;;13.79;70.20;101188.28;5013621;28;2111;-72
2023/09/14 12:37:20;;;;;;;;;;;;;;;13.80;70.21;101189.97;5018579;28;2073;-73
2023/09/14 12:40:12;;;;;;;;;;;;;;;13.80;70.24;101193.50;5013638;28;1858;-73
2023/09/14 12:43:04;;;;;;;;;;;;;;;13.81;70.30;101197.84;5022637;28;2066;-73
2023/09/14 12:45:56;;;;;;;;;;;;;;;13.82;70.14;101199.53;5017623;28;1888;-72
2023/09/14 12:48:48;;;;;;;;;;;;;;;13.84;70.19;101204.69;5012582;28;2081;-72
2023/09/14 12:51:40;;;;;;;;;;;;;;;13.84;70.13;101202.00;5007482;28;2174;-74
2023/09/14 12:54:32;;;;;;;;;;;;;;;13.85;70.19;101199.06;5017570;28;1987;-73
2023/09/14 12:57:24;;;;;;;;;;;;;;;13.85;70.19;101185.53;5017953;28;2019;-73
2023/09/14 13:00:16;;;;;;;;;;;;;;;13.84;70.44;101183.84;5014810;28;2055;-74
2023/09/14 13:03:08;;;;;;;;;;;;;;;13.86;70.30;101176.34;5014325;28;2150;-73
2023/09/14 13:06:00;;;;;;;;;;;;;;;13.86;70.45;101175.53;5019964;28;1155;-73
2023/09/14 13:08:52;;;;;;;;;;;;;;;13.88;70.55;101176.09;5010909;28;2102;-73
2023/09/14 13:11:44;;;;;;;;;;;;;;;13.88;70.59;101175.28;5008291;28;2019;-71
2023/09/14 13:14:37;;;;;;;;;;;;;;;13.89;70.55;101168.84;5013715;28;2139;-73
2023/09/14 13:17:28;;;;;;;;;;;;;;;13.90;70.66;101165.88;5013617;28;1979;-72
2023/09/14 13:20:19;;;;;;;;;;;;;;;13.90;70.49;101155.06;5019391;28;1975;-72
2023/09/14 13:23:11;;;;;;;;;;;;;;;13.92;70.71;101161.06;5022504;28;1644;-73
2023/09/14 13:26:02;;;;;;;;;;;;;;;13.93;70.52;101146.47;5022482;28;2105;-72
2023/09/14 13:28:56;;;;;;;;;;;;;;;13.92;70.51;101147.53;5018144;28;1906;-73
2023/09/14 13:31:47;;;;;;;;;;;;;;;13.94;70.59;101139.16;5011971;28;2230;-72
2023/09/14 13:34:39;;;;;;;;;;;;;;;13.96;70.72;101135.19;5011925;28;2082;-73
2023/09/14 13:37:30;;;;;;;;;;;;;;;13.96;70.60;101126.25;5018596;28;2063;-73
2023/09/14 13:40:22;;;;;;;;;;;;;;;13.96;70.70;101116.22;5024563;28;2074;-73
2023/09/14 13:43:14;;;;;;;;;;;;;;;13.96;70.76;101121.66;5026263;28;2411;-73
2023/09/14 13:46:06;;;;;;;;;;;;;;;13.97;70.78;101114.34;5015264;28;3678;-73
2023/09/14 13:48:58;;;;;;;;;;;;;;;13.98;70.64;101111.41;5017897;28;1973;-74
2023/09/14 13:51:49;;;;;;;;;;;;;;;13.99;70.72;101112.25;5018952;28;3894;-73
2023/09/14 13:54:41;;;;;;;;;;;;;;;14.00;70.94;101112.03;5025370;28;1943;-73
2023/09/14 13:57:34;;;;;;;;;;;;;;;14.00;70.79;101120.16;5020179;28;1896;-72
2023/09/14 14:00:26;;;;;;;;;;;;;;;14.00;70.92;101097.63;5013828;28;2264;-73
2023/09/14 14:03:20;;;;;;;;;;;;;;;14.00;70.93;101090.38;5016903;28;3737;-73
2023/09/14 14:06:13;;;;;;;;;;;;;;;14.01;70.87;101097.41;5026645;28;1503;-72
2023/09/14 14:09:05;;;;;;;;;;;;;;;14.02;71.03;101090.13;5010525;28;2180;-74
2023/09/14 14:11:58;;;;;;;;;;;;;;;14.02;70.69;101087.41;5024774;28;2022;-73
2023/09/14 14:14:54;;;;;;;;;;;;;;;14.02;70.88;101085.53;5006728;28;2133;-73
2023/09/14 14:17:46;;;;;;;;;;;;;;;14.03;71.12;101089.06;5017589;28;1904;-73
2023/09/14 14:20:38;;;;;;;;;;;;;;;14.04;71.11;101088.03;4995028;28;3937;-73
2023/09/14 14:23:30;;;;;;;;;;;;;;;14.05;71.13;101095.06;5001738;28;2524;-73
2023/09/14 14:26:22;;;;;;;;;;;;;;;14.04;70.94;101094.25;5006302;28;2192;-72
2023/09/14 14:29:14;;;;;;;;;;;;;;;14.06;71.23;101086.72;5001643;28;3598;-73
2023/09/14 14:32:06;;;;;;;;;;;;;;;14.06;70.98;101086.72;5015762;28;2098;-74
2023/09/14 14:34:57;;;;;;;;;;;;;;;14.07;71.15;101082.13;5026416;28;1282;-74
2023/09/14 14:37:49;;;;;;;;;;;;;;;14.08;71.08;101086.50;5018743;28;2094;-74
2023/09/14 14:40:41;;;;;;;;;;;;;;;14.07;71.21;101082.97;5025793;28;3591;-74
2023/09/14 14:43:33;;;;;;;;;;;;;;;14.07;71.18;101091.09;5022589;28;1025;-74
2023/09/14 14:46:25;;;;;;;;;;;;;;;14.08;71.27;101087.31;5019700;28;2232;-73
2023/09/14 14:49:17;;;;;;;;;;;;;;;14.09;71.28;101096.28;5026440;28;2034;-74
2023/09/14 14:52:09;;;;;;;;;;;;;;;14.11;71.48;101093.34;5018437;28;2379;-73
2023/09/14 14:55:01;;;;;;;;;;;;;;;14.11;71.24;101091.44;5017837;28;2165;-74